createdAt,value
2022-12-01T00:02:51.687Z,26.98
2022-12-01T00:03:39.035Z,29.20
2022-12-01T00:04:25.844Z,31.20
2022-12-01T00:05:12.589Z,26.45
2022-12-01T00:06:01.312Z,25.85
2022-12-01T00:06:48.433Z,27.75
2022-12-01T00:07:35.327Z,25.55
2022-12-01T00:08:22.353Z,25.75
2022-12-01T00:09:28.282Z,29.05
2022-12-01T00:10:27.367Z,28.90
2022-12-01T00:11:14.240Z,29.87
2022-12-01T00:12:01.272Z,28.20
2022-12-01T00:13:49.493Z,30.33
2022-12-01T00:15:53.433Z,25.58
2022-12-01T00:16:41.359Z,30.52
2022-12-01T00:17:30.391Z,30.60
2022-12-01T00:18:17.516Z,26.15
2022-12-01T00:19:04.542Z,29.83
2022-12-01T00:19:51.423Z,28.20
2022-12-01T00:23:57.992Z,27.37
2022-12-01T00:24:45.432Z,27.48
2022-12-01T00:25:32.620Z,29.20
2022-12-01T00:26:20.402Z,33.47
2022-12-01T00:27:07.230Z,30.15
2022-12-01T00:27:54.776Z,27.52
2022-12-01T00:28:41.957Z,28.98
2022-12-01T00:29:28.920Z,30.05
2022-12-01T00:30:16.184Z,27.00
2022-12-01T00:31:07.831Z,27.02
2022-12-01T00:31:54.755Z,27.80
2022-12-01T00:32:41.757Z,29.27
2022-12-01T00:33:28.734Z,32.08
2022-12-01T00:34:23.175Z,25.02
2022-12-01T00:35:10.219Z,29.20
2022-12-01T00:36:00.664Z,27.77
2022-12-01T00:36:47.438Z,28.20
2022-12-01T00:37:35.467Z,27.25
2022-12-01T00:38:22.303Z,38.65
2022-12-01T00:39:10.035Z,29.83
2022-12-01T00:39:57.537Z,29.37
2022-12-01T00:40:44.405Z,28.08
2022-12-01T00:41:31.237Z,29.23
2022-12-01T00:42:20.969Z,25.60
2022-12-01T00:43:07.965Z,29.63
2022-12-01T00:43:54.984Z,28.55
2022-12-01T00:44:41.854Z,25.60
2022-12-01T00:45:28.678Z,29.37
2022-12-01T00:46:15.721Z,25.62
2022-12-01T00:47:02.630Z,29.60
2022-12-01T00:47:49.477Z,26.95
2022-12-01T00:48:37.290Z,28.58
2022-12-01T00:49:24.235Z,30.35
2022-12-01T00:50:11.484Z,28.90
2022-12-01T00:50:58.357Z,27.27
2022-12-01T00:51:45.373Z,29.35
2022-12-01T00:52:32.236Z,26.37
2022-12-01T00:53:19.514Z,27.92
2022-12-01T00:54:06.363Z,26.27
2022-12-01T00:54:53.120Z,29.00
2022-12-01T00:55:40.538Z,29.55
2022-12-01T00:56:27.387Z,29.48
2022-12-01T00:57:14.242Z,27.00
2022-12-01T00:58:01.052Z,27.62
2022-12-01T00:58:47.906Z,29.70
2022-12-01T00:59:35.978Z,29.35
2022-12-01T01:00:22.826Z,28.40
2022-12-01T01:01:09.737Z,27.17
2022-12-01T01:01:56.768Z,30.23
2022-12-01T01:02:44.103Z,29.23
2022-12-01T01:03:32.384Z,28.70
2022-12-01T01:04:19.643Z,27.83
2022-12-01T01:05:07.499Z,26.60
2022-12-01T01:05:54.544Z,25.42
2022-12-01T01:06:43.503Z,25.23
2022-12-01T01:07:30.929Z,26.92
2022-12-01T01:08:17.821Z,24.92
2022-12-01T01:09:04.729Z,23.73
2022-12-01T01:09:51.569Z,26.80
2022-12-01T01:10:39.682Z,28.80
2022-12-01T01:11:26.554Z,29.77
2022-12-01T01:12:13.363Z,23.90
2022-12-01T01:13:00.287Z,25.37
2022-12-01T01:13:47.313Z,29.70
2022-12-01T01:14:34.209Z,25.83
2022-12-01T01:15:21.881Z,26.98
2022-12-01T01:16:22.077Z,32.65
2022-12-01T01:17:09.147Z,21.37
2022-12-01T01:17:55.963Z,23.85
2022-12-01T01:18:43.043Z,28.27
2022-12-01T01:19:29.949Z,27.33
2022-12-01T01:20:16.870Z,26.67
2022-12-01T01:21:08.876Z,28.70
2022-12-01T01:21:55.732Z,25.05
2022-12-01T01:22:42.591Z,27.30
2022-12-01T01:23:29.618Z,39.05
2022-12-01T01:24:16.471Z,24.52
2022-12-01T01:25:03.385Z,23.30
2022-12-01T01:25:50.212Z,27.75
2022-12-01T01:26:38.004Z,25.10
2022-12-01T01:27:24.865Z,25.58
2022-12-01T01:28:11.674Z,25.60
2022-12-01T01:29:00.385Z,30.62
2022-12-01T01:29:47.577Z,29.25
2022-12-01T01:30:34.841Z,26.80
2022-12-01T01:31:23.424Z,26.80
2022-12-01T01:32:10.256Z,26.48
2022-12-01T01:32:57.112Z,26.37
2022-12-01T01:33:44.565Z,26.35
2022-12-01T01:34:31.438Z,29.70
2022-12-01T01:35:18.279Z,28.50
2022-12-01T01:36:05.808Z,28.30
2022-12-01T01:36:52.601Z,27.23
2022-12-01T01:37:39.491Z,29.92
2022-12-01T01:38:27.094Z,30.05
2022-12-01T01:39:13.954Z,24.77
2022-12-01T01:40:00.778Z,28.33
2022-12-01T01:40:47.627Z,28.87
2022-12-01T01:41:34.546Z,30.48
2022-12-01T01:42:22.256Z,29.50
2022-12-01T01:43:38.208Z,24.95
2022-12-01T01:44:50.963Z,25.20
2022-12-01T01:45:37.980Z,28.65
2022-12-01T01:46:30.240Z,27.37
2022-12-01T01:47:22.572Z,29.45
2022-12-01T01:48:10.992Z,24.77
2022-12-01T01:49:00.848Z,25.65
2022-12-01T01:49:48.152Z,22.08
2022-12-01T01:50:35.397Z,27.52
2022-12-01T01:51:30.311Z,25.42
2022-12-01T01:52:17.876Z,28.23
2022-12-01T01:53:09.550Z,27.62
2022-12-01T01:53:59.521Z,29.87
2022-12-01T01:54:48.672Z,28.92
2022-12-01T01:55:36.052Z,27.25
2022-12-01T01:56:23.438Z,27.33
2022-12-01T01:57:12.370Z,29.48
2022-12-01T01:58:00.010Z,26.30
2022-12-01T01:58:47.561Z,25.80
2022-12-01T01:59:47.531Z,26.12
2022-12-01T02:00:34.520Z,25.08
2022-12-01T02:01:22.131Z,28.02
2022-12-01T02:02:11.230Z,26.75
2022-12-01T02:02:58.451Z,25.45
2022-12-01T02:03:45.835Z,29.83
2022-12-01T02:04:37.513Z,26.40
2022-12-01T02:05:27.313Z,28.55
2022-12-01T02:06:14.431Z,25.70
2022-12-01T02:07:01.362Z,25.67
2022-12-01T02:07:48.800Z,28.27
2022-12-01T02:08:36.588Z,25.52
2022-12-01T02:09:23.438Z,27.65
2022-12-01T02:10:12.366Z,31.55
2022-12-01T02:11:06.747Z,28.87
2022-12-01T02:12:15.393Z,27.98
2022-12-01T02:13:13.149Z,24.77
2022-12-01T02:14:44.440Z,25.60
2022-12-01T02:15:39.566Z,23.83
2022-12-01T02:16:49.147Z,27.55
2022-12-01T02:18:02.138Z,30.75
2022-12-01T02:19:25.914Z,25.75
2022-12-01T02:20:59.763Z,28.52
2022-12-01T02:22:37.183Z,26.30
2022-12-01T02:23:38.946Z,28.73
2022-12-01T02:24:48.714Z,25.02
2022-12-01T02:26:03.677Z,26.45
2022-12-01T02:27:02.060Z,27.80
2022-12-01T02:28:14.582Z,25.33
2022-12-01T02:29:39.150Z,23.25
2022-12-01T02:30:41.578Z,26.48
2022-12-01T02:31:40.460Z,23.65
2022-12-01T02:32:40.540Z,27.55
2022-12-01T02:33:35.458Z,27.42
2022-12-01T02:34:27.874Z,25.05
2022-12-01T02:35:33.133Z,24.42
2022-12-01T02:36:36.206Z,24.17
2022-12-01T02:37:52.529Z,29.55
2022-12-01T02:38:52.244Z,25.23
2022-12-01T02:39:45.552Z,24.87
2022-12-01T02:40:44.177Z,27.08
2022-12-01T02:41:41.597Z,27.77
2022-12-01T02:42:53.882Z,25.35
2022-12-01T02:44:07.879Z,28.92
2022-12-01T02:44:55.160Z,25.60
2022-12-01T02:46:11.601Z,24.20
2022-12-01T02:47:10.670Z,28.77
2022-12-01T02:48:01.849Z,27.45
2022-12-01T02:48:50.682Z,26.65
2022-12-01T02:49:42.409Z,29.17
2022-12-01T02:50:31.878Z,30.00
2022-12-01T02:51:31.387Z,29.80
2022-12-01T02:52:19.272Z,25.20
2022-12-01T02:53:08.437Z,27.20
2022-12-01T02:53:56.705Z,26.83
2022-12-01T02:54:44.862Z,26.92
2022-12-01T02:55:31.786Z,31.40
2022-12-01T02:56:21.526Z,30.50
2022-12-01T02:57:12.085Z,27.02
2022-12-01T02:58:45.707Z,28.98
2022-12-01T02:59:32.630Z,30.62
2022-12-01T03:00:19.740Z,30.60
2022-12-01T03:01:06.568Z,29.20
2022-12-01T03:02:13.622Z,26.50
2022-12-01T03:03:09.689Z,28.90
2022-12-01T03:04:01.249Z,28.90
2022-12-01T03:04:59.029Z,30.92
2022-12-01T03:06:02.249Z,32.40
2022-12-01T03:07:04.238Z,28.38
2022-12-01T03:08:13.918Z,31.10
2022-12-01T03:09:11.015Z,29.98
2022-12-01T03:10:12.823Z,28.17
2022-12-01T03:11:00.375Z,33.35
2022-12-01T03:11:59.826Z,27.25
2022-12-01T03:13:09.028Z,31.50
2022-12-01T03:14:10.774Z,30.35
2022-12-01T03:15:16.173Z,35.20
2022-12-01T03:16:20.622Z,29.02
2022-12-01T03:17:16.301Z,29.33
2022-12-01T03:18:34.391Z,29.52
2022-12-01T03:19:38.177Z,29.60
2022-12-01T03:20:42.772Z,26.27
2022-12-01T03:21:42.814Z,29.77
2022-12-01T03:22:37.739Z,29.83
2022-12-01T03:23:27.994Z,30.23
2022-12-01T03:24:16.422Z,31.00
2022-12-01T03:25:04.921Z,28.62
2022-12-01T03:25:52.863Z,32.08
2022-12-01T03:26:41.961Z,30.95
2022-12-01T03:27:32.081Z,27.58
2022-12-01T03:28:22.996Z,32.10
2022-12-01T03:29:14.195Z,31.48
2022-12-01T03:30:02.859Z,34.55
2022-12-01T03:30:52.947Z,32.97
2022-12-01T03:31:44.157Z,29.50
2022-12-01T03:32:32.188Z,26.83
2022-12-01T03:33:27.382Z,28.80
2022-12-01T03:34:29.694Z,31.70
2022-12-01T03:35:23.841Z,32.22
2022-12-01T03:36:15.597Z,29.25
2022-12-01T03:37:07.302Z,29.27
2022-12-01T03:38:00.755Z,30.30
2022-12-01T03:38:52.866Z,32.85
2022-12-01T03:39:40.348Z,33.00
2022-12-01T03:40:28.838Z,30.60
2022-12-01T03:41:29.808Z,32.90
2022-12-01T03:42:41.316Z,30.37
2022-12-01T03:43:36.623Z,30.90
2022-12-01T03:44:29.944Z,30.15
2022-12-01T03:45:24.062Z,33.15
2022-12-01T03:46:17.916Z,34.50
2022-12-01T03:47:07.797Z,30.60
2022-12-01T03:47:55.008Z,30.98
2022-12-01T03:48:42.262Z,31.40
2022-12-01T03:49:29.522Z,32.10
2022-12-01T03:50:18.806Z,33.53
2022-12-01T03:51:20.777Z,33.67
2022-12-01T03:52:36.193Z,37.70
2022-12-01T03:53:27.732Z,40.00
2022-12-01T03:54:17.575Z,35.33
2022-12-01T03:55:13.984Z,36.40
2022-12-01T03:56:04.230Z,34.80
2022-12-01T03:56:55.759Z,34.38
2022-12-01T03:58:04.024Z,34.50
2022-12-01T03:58:54.381Z,37.78
2022-12-01T03:59:42.190Z,33.45
2022-12-01T04:00:29.725Z,32.55
2022-12-01T04:01:16.743Z,34.10
2022-12-01T04:02:03.724Z,32.60
2022-12-01T04:02:58.374Z,34.58
2022-12-01T04:03:46.631Z,37.83
2022-12-01T04:04:33.484Z,34.22
2022-12-01T04:05:25.172Z,33.63
2022-12-01T04:06:12.365Z,34.00
2022-12-01T04:06:59.159Z,32.10
2022-12-01T04:07:46.144Z,33.53
2022-12-01T04:08:34.058Z,33.47
2022-12-01T04:09:20.910Z,30.77
2022-12-01T04:10:08.710Z,34.75
2022-12-01T04:10:55.524Z,34.05
2022-12-01T04:12:01.971Z,33.65
2022-12-01T04:12:49.024Z,32.13
2022-12-01T04:13:37.113Z,33.13
2022-12-01T04:14:24.067Z,32.70
2022-12-01T04:15:12.971Z,28.65
2022-12-01T04:16:00.179Z,32.20
2022-12-01T04:16:47.152Z,29.87
2022-12-01T04:17:34.513Z,36.13
2022-12-01T04:18:21.972Z,33.05
2022-12-01T04:19:08.932Z,32.17
2022-12-01T04:19:56.063Z,35.25
2022-12-01T04:20:43.800Z,34.42
2022-12-01T04:21:30.863Z,34.67
2022-12-01T04:22:17.960Z,38.10
2022-12-01T04:23:04.818Z,31.10
2022-12-01T04:24:00.509Z,34.33
2022-12-01T04:24:47.423Z,34.78
2022-12-01T04:25:34.308Z,34.67
2022-12-01T04:26:21.154Z,32.30
2022-12-01T04:27:08.051Z,30.05
2022-12-01T04:27:54.965Z,32.90
2022-12-01T04:28:41.767Z,31.50
2022-12-01T04:29:28.603Z,32.58
2022-12-01T04:30:15.602Z,30.70
2022-12-01T04:31:02.494Z,32.95
2022-12-01T04:31:49.495Z,33.50
2022-12-01T04:32:42.155Z,33.20
2022-12-01T04:33:29.765Z,33.30
2022-12-01T04:34:16.762Z,30.33
2022-12-01T04:35:03.637Z,30.92
2022-12-01T04:36:00.563Z,32.72
2022-12-01T04:36:47.510Z,32.97
2022-12-01T04:37:34.444Z,31.75
2022-12-01T04:38:24.994Z,29.50
2022-12-01T04:39:15.932Z,31.80
2022-12-01T04:40:02.767Z,30.35
2022-12-01T04:40:49.742Z,37.13
2022-12-01T04:41:36.699Z,33.83
2022-12-01T04:42:23.764Z,29.98
2022-12-01T04:43:10.568Z,32.75
2022-12-01T04:43:57.597Z,34.75
2022-12-01T04:44:44.642Z,29.73
2022-12-01T04:45:31.512Z,33.75
2022-12-01T04:46:18.440Z,30.20
2022-12-01T04:47:06.050Z,29.17
2022-12-01T04:47:53.481Z,28.27
2022-12-01T04:48:40.530Z,31.67
2022-12-01T04:49:27.504Z,28.83
2022-12-01T04:50:14.495Z,31.02
2022-12-01T04:51:01.330Z,29.63
2022-12-01T04:51:48.788Z,29.27
2022-12-01T04:52:37.534Z,28.50
2022-12-01T04:53:24.382Z,29.55
2022-12-01T04:54:11.443Z,30.58
2022-12-01T04:54:58.263Z,28.92
2022-12-01T04:55:45.203Z,31.33
2022-12-01T04:56:33.706Z,27.50
2022-12-01T04:57:20.521Z,28.08
2022-12-01T04:58:07.581Z,25.60
2022-12-01T04:58:54.399Z,30.73
2022-12-01T04:59:41.260Z,28.60
2022-12-01T05:00:28.219Z,32.25
2022-12-01T05:01:17.609Z,28.85
2022-12-01T05:02:04.586Z,27.48
2022-12-01T05:02:51.433Z,27.58
2022-12-01T05:03:39.487Z,26.87
2022-12-01T05:04:26.365Z,28.02
2022-12-01T05:05:14.322Z,29.52
2022-12-01T05:06:15.503Z,25.67
2022-12-01T05:07:02.269Z,28.38
2022-12-01T05:07:49.209Z,28.12
2022-12-01T05:08:36.229Z,27.50
2022-12-01T05:09:23.104Z,29.67
2022-12-01T05:10:10.155Z,28.52
2022-12-01T05:10:57.217Z,28.48
2022-12-01T05:11:44.121Z,28.02
2022-12-01T05:12:30.944Z,26.05
2022-12-01T05:13:17.854Z,29.48
2022-12-01T05:14:04.729Z,27.60
2022-12-01T05:14:51.593Z,25.23
2022-12-01T05:15:38.598Z,27.67
2022-12-01T05:16:28.432Z,26.02
2022-12-01T05:17:15.312Z,25.73
2022-12-01T05:18:02.258Z,24.73
2022-12-01T05:18:51.042Z,25.73
2022-12-01T05:19:56.962Z,27.45
2022-12-01T05:20:59.089Z,25.98
2022-12-01T05:21:47.665Z,25.10
2022-12-01T05:23:03.927Z,24.83
2022-12-01T05:23:41.363Z,23.30
2022-12-01T05:24:28.288Z,24.63
2022-12-01T05:25:15.270Z,22.75
2022-12-01T05:26:04.166Z,24.27
2022-12-01T05:26:51.034Z,23.33
2022-12-01T05:27:37.857Z,24.02
2022-12-01T05:28:27.010Z,24.75
2022-12-01T05:29:14.138Z,23.20
2022-12-01T05:30:00.951Z,26.08
2022-12-01T05:30:48.583Z,26.52
2022-12-01T05:31:36.141Z,26.40
2022-12-01T05:32:23.015Z,22.10
2022-12-01T05:33:09.990Z,25.55
2022-12-01T05:33:57.060Z,24.37
2022-12-01T05:34:43.921Z,24.25
2022-12-01T05:35:30.859Z,24.30
2022-12-01T05:36:17.716Z,23.42
2022-12-01T05:37:04.641Z,23.55
2022-12-01T05:37:51.492Z,25.40
2022-12-01T05:38:38.340Z,26.80
2022-12-01T05:39:25.351Z,25.30
2022-12-01T05:40:12.481Z,22.40
2022-12-01T05:40:59.319Z,20.80
2022-12-01T05:41:46.230Z,19.90
2022-12-01T05:42:33.095Z,24.90
2022-12-01T05:43:25.408Z,21.52
2022-12-01T05:44:15.681Z,22.40
2022-12-01T05:45:02.571Z,24.65
2022-12-01T05:45:52.173Z,20.85
2022-12-01T05:46:39.011Z,16.67
2022-12-01T05:47:25.832Z,20.50
2022-12-01T05:48:12.664Z,22.48
2022-12-01T05:48:59.553Z,23.08
2022-12-01T05:49:46.590Z,20.80
2022-12-01T05:50:33.790Z,22.23
2022-12-01T05:51:20.691Z,19.95
2022-12-01T05:52:07.503Z,20.00
2022-12-01T05:52:54.397Z,22.10
2022-12-01T05:53:41.283Z,23.38
2022-12-01T05:54:30.677Z,21.65
2022-12-01T05:55:17.681Z,23.33
2022-12-01T05:56:05.440Z,22.92
2022-12-01T05:56:52.353Z,19.35
2022-12-01T05:57:39.430Z,20.85
2022-12-01T05:58:26.329Z,23.12
2022-12-01T05:59:13.246Z,23.17
2022-12-01T06:00:00.533Z,22.85
2022-12-01T06:00:47.487Z,23.38
2022-12-01T06:01:34.443Z,21.10
2022-12-01T06:02:21.495Z,24.10
2022-12-01T06:03:08.428Z,21.30
2022-12-01T06:03:55.405Z,20.50
2022-12-01T06:04:42.307Z,18.62
2022-12-01T06:05:29.571Z,21.45
2022-12-01T06:06:16.509Z,20.27
2022-12-01T06:07:03.535Z,19.15
2022-12-01T06:07:50.534Z,20.83
2022-12-01T06:08:37.636Z,20.80
2022-12-01T06:09:24.460Z,18.50
2022-12-01T06:10:12.216Z,19.95
2022-12-01T06:10:59.264Z,23.00
2022-12-01T06:11:49.017Z,20.20
2022-12-01T06:12:39.269Z,19.73
2022-12-01T06:13:26.375Z,19.60
2022-12-01T06:14:13.270Z,21.00
2022-12-01T06:15:00.475Z,19.55
2022-12-01T06:15:56.455Z,20.25
2022-12-01T06:16:43.334Z,19.52
2022-12-01T06:17:30.286Z,20.83
2022-12-01T06:18:17.208Z,20.80
2022-12-01T06:19:04.096Z,21.02
2022-12-01T06:19:51.203Z,20.85
2022-12-01T06:20:38.448Z,21.25
2022-12-01T06:21:25.362Z,20.95
2022-12-01T06:22:12.422Z,19.40
2022-12-01T06:22:59.810Z,19.70
2022-12-01T06:23:46.691Z,20.25
2022-12-01T06:24:33.563Z,24.20
2022-12-01T06:25:20.620Z,21.50
2022-12-01T06:26:07.693Z,18.48
2022-12-01T06:26:54.633Z,20.70
2022-12-01T06:27:41.570Z,18.80
2022-12-01T06:28:28.529Z,20.75
2022-12-01T06:29:15.361Z,20.25
2022-12-01T06:30:02.606Z,21.15
2022-12-01T06:30:49.496Z,25.33
2022-12-01T06:31:36.621Z,19.42
2022-12-01T06:32:23.700Z,20.55
2022-12-01T06:33:10.569Z,21.33
2022-12-01T06:33:57.370Z,17.80
2022-12-01T06:34:44.300Z,21.73
2022-12-01T06:35:31.158Z,19.33
2022-12-01T06:36:18.169Z,19.73
2022-12-01T06:37:05.066Z,19.05
2022-12-01T06:37:54.495Z,21.08
2022-12-01T06:38:41.368Z,19.75
2022-12-01T06:39:28.253Z,19.35
2022-12-01T06:40:15.192Z,19.90
2022-12-01T06:41:02.229Z,22.37
2022-12-01T06:41:49.505Z,19.25
2022-12-01T06:42:36.333Z,20.33
2022-12-01T06:43:23.202Z,21.50
2022-12-01T06:44:10.884Z,22.30
2022-12-01T06:44:57.874Z,21.00
2022-12-01T06:45:44.859Z,21.23
2022-12-01T06:46:31.951Z,20.08
2022-12-01T06:47:18.900Z,21.87
2022-12-01T06:48:05.861Z,21.02
2022-12-01T06:48:53.321Z,19.23
2022-12-01T06:49:40.335Z,21.75
2022-12-01T06:50:27.279Z,17.98
2022-12-01T06:51:14.202Z,19.85
2022-12-01T06:52:01.291Z,19.30
2022-12-01T06:52:48.215Z,18.92
2022-12-01T06:53:35.154Z,19.15
2022-12-01T06:54:22.155Z,20.50
2022-12-01T06:55:09.436Z,20.05
2022-12-01T06:56:03.595Z,18.25
2022-12-01T06:56:50.746Z,19.90
2022-12-01T06:57:37.866Z,19.60
2022-12-01T06:58:25.138Z,21.40
2022-12-01T06:59:12.568Z,18.52
2022-12-01T06:59:59.938Z,18.02
2022-12-01T07:00:51.858Z,18.85
2022-12-01T07:01:39.395Z,17.90
2022-12-01T07:02:26.385Z,18.42
2022-12-01T07:03:13.564Z,19.23
2022-12-01T07:04:01.055Z,19.17
2022-12-01T07:04:47.928Z,20.73
2022-12-01T07:05:34.808Z,19.98
2022-12-01T07:06:21.855Z,18.45
2022-12-01T07:07:08.828Z,19.75
2022-12-01T07:07:59.432Z,21.40
2022-12-01T07:08:47.002Z,21.55
2022-12-01T07:09:34.422Z,21.33
2022-12-01T07:10:21.740Z,19.98
2022-12-01T07:11:12.696Z,21.27
2022-12-01T07:11:59.645Z,21.92
2022-12-01T07:12:46.609Z,20.35
2022-12-01T07:13:34.550Z,18.58
2022-12-01T07:14:25.409Z,20.33
2022-12-01T07:15:12.391Z,18.42
2022-12-01T07:15:59.386Z,19.92
2022-12-01T07:16:46.439Z,19.92
2022-12-01T07:17:34.063Z,20.48
2022-12-01T07:18:21.050Z,22.52
2022-12-01T07:19:08.080Z,21.60
2022-12-01T07:19:55.004Z,22.67
2022-12-01T07:20:41.960Z,22.20
2022-12-01T07:21:28.864Z,25.62
2022-12-01T07:22:16.188Z,25.20
2022-12-01T07:23:03.074Z,22.58
2022-12-01T07:23:49.900Z,23.40
2022-12-01T07:24:36.824Z,21.77
2022-12-01T07:25:23.723Z,21.83
2022-12-01T07:26:16.125Z,24.20
2022-12-01T07:27:02.934Z,23.33
2022-12-01T07:27:49.867Z,25.55
2022-12-01T07:28:36.787Z,23.38
2022-12-01T07:29:23.689Z,22.00
2022-12-01T07:30:10.993Z,22.80
2022-12-01T07:31:07.887Z,22.85
2022-12-01T07:31:55.179Z,21.05
2022-12-01T07:32:42.100Z,24.58
2022-12-01T07:33:28.937Z,22.87
2022-12-01T07:34:15.914Z,22.35
2022-12-01T07:35:02.862Z,23.38
2022-12-01T07:35:49.750Z,23.70
2022-12-01T07:36:36.653Z,23.75
2022-12-01T07:37:23.493Z,21.80
2022-12-01T07:38:10.404Z,23.90
2022-12-01T07:38:57.399Z,24.10
2022-12-01T07:39:44.331Z,22.08
2022-12-01T07:40:31.215Z,25.33
2022-12-01T07:41:19.477Z,23.73
2022-12-01T07:42:06.432Z,23.12
2022-12-01T07:42:53.351Z,21.85
2022-12-01T07:43:40.753Z,20.62
2022-12-01T07:44:27.741Z,24.40
2022-12-01T07:45:14.787Z,22.25
2022-12-01T07:46:09.121Z,21.70
2022-12-01T07:46:56.107Z,21.55
2022-12-01T07:47:44.665Z,21.12
2022-12-01T07:48:31.552Z,21.55
2022-12-01T07:49:18.629Z,20.50
2022-12-01T07:50:06.170Z,20.80
2022-12-01T07:50:56.016Z,22.70
2022-12-01T07:51:43.083Z,24.45
2022-12-01T07:52:29.991Z,22.20
2022-12-01T07:53:16.849Z,24.10
2022-12-01T07:54:05.760Z,22.80
2022-12-01T07:54:52.990Z,21.92
2022-12-01T07:55:39.830Z,21.25
2022-12-01T07:56:26.693Z,21.45
2022-12-01T07:57:14.979Z,20.62
2022-12-01T07:58:01.939Z,19.27
2022-12-01T07:58:49.125Z,20.37
2022-12-01T07:59:36.002Z,19.73
2022-12-01T08:00:22.998Z,22.73
2022-12-01T08:01:12.734Z,18.90
2022-12-01T08:01:59.763Z,20.12
2022-12-01T08:02:49.343Z,19.85
2022-12-01T08:03:37.108Z,19.75
2022-12-01T08:04:24.095Z,20.10
2022-12-01T08:05:11.021Z,22.73
2022-12-01T08:06:01.852Z,19.33
2022-12-01T08:06:48.810Z,18.58
2022-12-01T08:07:36.665Z,18.35
2022-12-01T08:08:23.558Z,17.40
2022-12-01T08:09:10.434Z,20.10
2022-12-01T08:09:57.410Z,17.75
2022-12-01T08:10:44.275Z,18.90
2022-12-01T08:11:31.203Z,20.12
2022-12-01T08:12:18.167Z,17.83
2022-12-01T08:13:05.124Z,18.85
2022-12-01T08:13:53.316Z,17.60
2022-12-01T08:14:40.142Z,18.27
2022-12-01T08:15:26.996Z,17.23
2022-12-01T08:16:16.164Z,15.70
2022-12-01T08:17:03.074Z,18.90
2022-12-01T08:17:49.987Z,19.10
2022-12-01T08:18:38.635Z,16.62
2022-12-01T08:19:26.073Z,17.10
2022-12-01T08:20:13.073Z,16.75
2022-12-01T08:20:59.917Z,18.80
2022-12-01T08:21:46.813Z,18.02
2022-12-01T08:22:33.794Z,16.85
2022-12-01T08:23:20.694Z,17.58
2022-12-01T08:24:07.846Z,18.70
2022-12-01T08:24:54.740Z,17.45
2022-12-01T08:25:41.633Z,16.15
2022-12-01T08:26:28.490Z,18.23
2022-12-01T08:27:15.533Z,19.50
2022-12-01T08:28:02.529Z,18.62
2022-12-01T08:28:49.844Z,16.33
2022-12-01T08:29:36.719Z,16.98
2022-12-01T08:30:23.842Z,18.23
2022-12-01T08:31:20.952Z,17.48
2022-12-01T08:32:08.380Z,16.30
2022-12-01T08:32:56.916Z,16.58
2022-12-01T08:33:43.876Z,15.82
2022-12-01T08:34:30.755Z,17.20
2022-12-01T08:35:17.709Z,16.62
2022-12-01T08:36:05.792Z,17.87
2022-12-01T08:36:52.705Z,17.65
2022-12-01T08:37:39.589Z,15.02
2022-12-01T08:38:26.487Z,15.32
2022-12-01T08:39:13.490Z,16.37
2022-12-01T08:40:00.678Z,17.45
2022-12-01T08:40:47.790Z,16.35
2022-12-01T08:41:34.942Z,15.73
2022-12-01T08:42:21.975Z,17.08
2022-12-01T08:43:12.362Z,16.75
2022-12-01T08:44:05.644Z,15.90
2022-12-01T08:44:55.464Z,17.12
2022-12-01T08:45:42.584Z,15.70
2022-12-01T08:46:32.913Z,17.65
2022-12-01T08:47:19.860Z,14.40
2022-12-01T08:48:06.685Z,15.00
2022-12-01T08:48:55.205Z,16.90
2022-12-01T08:49:42.076Z,15.57
2022-12-01T08:50:29.261Z,16.23
2022-12-01T08:51:18.125Z,17.60
2022-12-01T08:52:04.946Z,17.02
2022-12-01T08:52:51.866Z,17.12
2022-12-01T08:53:45.440Z,17.92
2022-12-01T08:54:32.782Z,18.02
2022-12-01T08:55:20.738Z,16.52
2022-12-01T08:56:29.304Z,17.70
2022-12-01T08:57:16.043Z,17.40
2022-12-01T08:58:02.846Z,16.15
2022-12-01T08:58:51.196Z,17.12
2022-12-01T08:59:38.019Z,19.33
2022-12-01T09:00:24.930Z,16.98
2022-12-01T09:01:15.749Z,17.73
2022-12-01T09:02:06.915Z,18.33
2022-12-01T09:02:54.222Z,20.55
2022-12-01T09:03:41.778Z,18.75
2022-12-01T09:04:28.843Z,19.27
2022-12-01T09:05:15.824Z,18.08
2022-12-01T09:06:20.504Z,20.02
2022-12-01T09:07:10.849Z,17.98
2022-12-01T09:08:18.074Z,17.85
2022-12-01T09:09:05.398Z,18.73
2022-12-01T09:09:52.300Z,18.67
2022-12-01T09:10:39.258Z,19.02
2022-12-01T09:11:26.603Z,22.02
2022-12-01T09:12:13.572Z,18.40
2022-12-01T09:13:00.747Z,19.52
2022-12-01T09:13:53.020Z,21.83
2022-12-01T09:14:46.249Z,18.58
2022-12-01T09:15:33.210Z,17.05
2022-12-01T09:16:20.236Z,17.67
2022-12-01T09:17:07.948Z,19.00
2022-12-01T09:17:55.246Z,18.67
2022-12-01T09:18:42.973Z,17.85
2022-12-01T09:19:30.242Z,18.65
2022-12-01T09:20:17.113Z,16.35
2022-12-01T09:21:30.964Z,18.45
2022-12-01T09:22:18.096Z,16.95
2022-12-01T09:23:05.085Z,19.20
2022-12-01T09:23:52.272Z,16.52
2022-12-01T09:24:39.655Z,18.58
2022-12-01T09:25:26.603Z,19.02
2022-12-01T09:26:18.379Z,16.45
2022-12-01T09:27:05.551Z,19.52
2022-12-01T09:27:52.527Z,18.25
2022-12-01T09:28:39.528Z,18.70
2022-12-01T09:29:26.677Z,17.70
2022-12-01T09:30:13.848Z,20.48
2022-12-01T09:31:08.905Z,17.65
2022-12-01T09:31:59.995Z,17.20
2022-12-01T09:32:47.083Z,17.00
2022-12-01T09:33:34.320Z,18.75
2022-12-01T09:34:21.393Z,17.35
2022-12-01T09:35:08.530Z,18.33
2022-12-01T09:35:59.718Z,25.10
2022-12-01T09:36:47.788Z,21.67
2022-12-01T09:37:34.636Z,20.50
2022-12-01T09:38:21.469Z,22.55
2022-12-01T09:39:10.814Z,22.67
2022-12-01T09:39:57.652Z,22.92
2022-12-01T09:40:44.662Z,23.60
2022-12-01T09:41:34.743Z,26.70
2022-12-01T09:42:32.222Z,24.55
2022-12-01T09:43:23.514Z,22.75
2022-12-01T09:44:23.116Z,24.58
2022-12-01T09:45:22.785Z,22.08
2022-12-01T09:46:14.894Z,21.15
2022-12-01T09:47:05.024Z,19.80
2022-12-01T09:47:54.386Z,23.40
2022-12-01T09:48:46.437Z,23.75
2022-12-01T09:49:55.756Z,21.33
2022-12-01T09:50:43.927Z,21.10
2022-12-01T09:51:34.949Z,21.12
2022-12-01T09:52:23.925Z,21.08
2022-12-01T09:53:15.960Z,21.80
2022-12-01T09:54:03.484Z,21.25
2022-12-01T09:54:50.976Z,22.37
2022-12-01T09:55:39.864Z,20.85
2022-12-01T09:56:30.612Z,20.12
2022-12-01T09:57:33.094Z,20.10
2022-12-01T09:58:27.053Z,21.45
2022-12-01T09:59:19.370Z,18.17
2022-12-01T10:00:25.156Z,21.33
2022-12-01T10:01:16.692Z,19.75
2022-12-01T10:02:13.860Z,20.70
2022-12-01T10:03:09.992Z,20.27
2022-12-01T10:04:00.155Z,18.90
2022-12-01T10:04:48.680Z,18.48
2022-12-01T10:07:16.222Z,16.67
2022-12-01T10:08:06.305Z,17.85
2022-12-01T10:09:17.779Z,20.00
2022-12-01T10:10:11.441Z,15.75
2022-12-01T10:11:04.826Z,15.65
2022-12-01T10:11:55.446Z,15.90
2022-12-01T10:13:29.723Z,17.33
2022-12-01T10:14:20.669Z,15.93
2022-12-01T10:15:18.715Z,15.68
2022-12-01T10:16:14.049Z,15.25
2022-12-01T10:17:07.059Z,15.00
2022-12-01T10:18:18.355Z,15.63
2022-12-01T10:19:29.158Z,17.00
2022-12-01T10:20:27.242Z,17.17
2022-12-01T10:21:32.805Z,16.33
2022-12-01T10:22:56.859Z,17.08
2022-12-01T10:23:57.261Z,15.07
2022-12-01T10:25:07.783Z,15.93
2022-12-01T10:25:59.535Z,18.67
2022-12-01T10:27:02.641Z,16.70
2022-12-01T10:28:10.727Z,17.17
2022-12-01T10:29:03.489Z,16.48
2022-12-01T10:30:18.703Z,15.65
2022-12-01T10:31:44.049Z,17.05
2022-12-01T10:32:58.463Z,13.60
2022-12-01T10:34:13.386Z,16.12
2022-12-01T10:35:00.225Z,14.82
2022-12-01T10:35:47.323Z,14.68
2022-12-01T10:36:34.980Z,16.77
2022-12-01T10:37:24.468Z,18.83
2022-12-01T10:38:23.151Z,15.85
2022-12-01T10:39:18.974Z,15.80
2022-12-01T10:40:06.599Z,21.60
2022-12-01T10:40:54.818Z,21.45
2022-12-01T10:41:41.858Z,20.23
2022-12-01T10:42:34.461Z,19.73
2022-12-01T10:43:31.832Z,25.62
2022-12-01T10:44:19.237Z,23.77
2022-12-01T10:45:10.856Z,18.60
2022-12-01T10:45:59.031Z,17.70
2022-12-01T10:46:55.727Z,17.75
2022-12-01T10:48:20.697Z,18.02
2022-12-01T10:49:10.853Z,30.00
2022-12-01T10:49:58.285Z,23.77
2022-12-01T10:50:47.716Z,22.40
2022-12-01T10:51:53.587Z,17.85
2022-12-01T10:52:42.071Z,17.52
2022-12-01T10:53:37.519Z,16.73
2022-12-01T10:54:32.989Z,16.55
2022-12-01T10:55:22.738Z,16.95
2022-12-01T10:56:16.641Z,17.50
2022-12-01T10:57:04.447Z,17.08
2022-12-01T10:57:53.034Z,15.57
2022-12-01T10:58:51.314Z,17.42
2022-12-01T10:59:58.346Z,14.90
2022-12-01T11:01:05.655Z,16.10